RYR34T GMTT-LEMD
Flight info
| Callsign | RYR34T |
|---|---|
| Flight time | N/A |
| Altitude | 18000 |
| Route | LAMAD M143 GALTO/N0436F340 N869 MGA DCT BLN DCT MORAL |
| Aircraft | B738/M-SDE2E3FGHIRWXY/LB1 |
Departure
| Time | 2026-04-15 17:46 |
|---|---|
| Airport | Tangier Ibn Battuta Airport (GMTT) |
Arrival
| Time | N/A |
|---|---|
| Airport | Adolfo Suárez Madrid–Barajas Airport (LEMD) |
| Time | Latitude | Longitude | Altitude | Speed | Heading |
|---|---|---|---|---|---|
| 2026-04-15 17:12 | 35.72521 | -5.91249 | 59 ft | 0 kts | 355° |
| 2026-04-15 17:33 | 35.72519 | -5.91249 | 59 ft | 2 kts | 355° |
| 2026-04-15 17:34 | 35.72493 | -5.91247 | 57 ft | 4 kts | 355° |
| 2026-04-15 17:34 | 35.72466 | -5.91244 | 54 ft | 4 kts | 359° |
| 2026-04-15 17:34 | 35.72445 | -5.91242 | 57 ft | 4 kts | 302° |
| 2026-04-15 17:34 | 35.72444 | -5.91227 | 53 ft | 4 kts | 264° |
| 2026-04-15 17:35 | 35.72447 | -5.91194 | 57 ft | 4 kts | 262° |
| 2026-04-15 17:35 | 35.72449 | -5.91174 | 54 ft | 1 kts | 265° |
| 2026-04-15 17:40 | 35.72449 | -5.91177 | 52 ft | 1 kts | 265° |
| 2026-04-15 17:40 | 35.72449 | -5.91186 | 54 ft | 1 kts | 265° |
| 2026-04-15 17:40 | 35.72448 | -5.91194 | 56 ft | 1 kts | 265° |
| 2026-04-15 17:41 | 35.72447 | -5.91202 | 59 ft | 1 kts | 265° |
| 2026-04-15 17:41 | 35.72446 | -5.91225 | 59 ft | 6 kts | 265° |
| 2026-04-15 17:41 | 35.72442 | -5.91282 | 59 ft | 7 kts | 265° |
| 2026-04-15 17:41 | 35.72438 | -5.91339 | 55 ft | 7 kts | 265° |
| 2026-04-15 17:42 | 35.72434 | -5.91398 | 56 ft | 8 kts | 265° |
| 2026-04-15 17:42 | 35.72429 | -5.91475 | 59 ft | 10 kts | 265° |
| 2026-04-15 17:42 | 35.72426 | -5.91573 | 59 ft | 13 kts | 277° |
| 2026-04-15 17:42 | 35.72474 | -5.91666 | 56 ft | 14 kts | 329° |
| 2026-04-15 17:43 | 35.72571 | -5.91693 | 59 ft | 14 kts | 355° |
| 2026-04-15 17:43 | 35.72681 | -5.91703 | 59 ft | 18 kts | 356° |
| 2026-04-15 17:43 | 35.72811 | -5.91714 | 59 ft | 19 kts | 356° |
| 2026-04-15 17:43 | 35.72931 | -5.91702 | 55 ft | 13 kts | 45° |
| 2026-04-15 17:44 | 35.72937 | -5.91620 | 56 ft | 10 kts | 96° |
| 2026-04-15 17:44 | 35.72929 | -5.91536 | 59 ft | 11 kts | 97° |
| 2026-04-15 17:44 | 35.72917 | -5.91410 | 59 ft | 19 kts | 97° |
| 2026-04-15 17:44 | 35.72899 | -5.91216 | 52 ft | 27 kts | 96° |
| 2026-04-15 17:45 | 35.72879 | -5.90977 | 59 ft | 19 kts | 90° |
| 2026-04-15 17:45 | 35.72953 | -5.90864 | 58 ft | 18 kts | 9° |
| 2026-04-15 17:45 | 35.73050 | -5.90938 | 59 ft | 18 kts | 290° |
| 2026-04-15 17:45 | 35.73080 | -5.91230 | 60 ft | 66 kts | 276° |
| 2026-04-15 17:46 | 35.73162 | -5.92096 | 57 ft | 134 kts | 276° |
| 2026-04-15 17:46 | 35.73281 | -5.93433 | 298 ft | 169 kts | 277° |
| 2026-04-15 17:46 | 35.73392 | -5.94891 | 1107 ft | 169 kts | 277° |
| 2026-04-15 17:46 | 35.73538 | -5.96378 | 1842 ft | 177 kts | 278° |
| 2026-04-15 17:47 | 35.73710 | -5.98015 | 2269 ft | 208 kts | 277° |
| 2026-04-15 17:47 | 35.73897 | -5.99914 | 2589 ft | 231 kts | 278° |
| 2026-04-15 17:47 | 35.73926 | -6.01921 | 3233 ft | 240 kts | 262° |
| 2026-04-15 17:47 | 35.73340 | -6.03835 | 3901 ft | 246 kts | 234° |
| 2026-04-15 17:48 | 35.72122 | -6.05286 | 4808 ft | 243 kts | 208° |
| 2026-04-15 17:48 | 35.70551 | -6.06011 | 5536 ft | 243 kts | 186° |
| 2026-04-15 17:48 | 35.68900 | -6.05925 | 6071 ft | 233 kts | 162° |
| 2026-04-15 17:48 | 35.67423 | -6.05073 | 6764 ft | 238 kts | 142° |
| 2026-04-15 17:49 | 35.66269 | -6.03602 | 7444 ft | 243 kts | 121° |
| 2026-04-15 17:49 | 35.65632 | -6.01682 | 8188 ft | 245 kts | 98° |
| 2026-04-15 17:49 | 35.65674 | -5.99586 | 8939 ft | 248 kts | 75° |
| 2026-04-15 17:49 | 35.66260 | -5.97582 | 9694 ft | 252 kts | 66° |
| 2026-04-15 17:50 | 35.66955 | -5.95579 | 10424 ft | 256 kts | 65° |
| 2026-04-15 17:50 | 35.67662 | -5.93566 | 11178 ft | 257 kts | 65° |
| 2026-04-15 17:50 | 35.68370 | -5.91527 | 11924 ft | 260 kts | 65° |
| 2026-04-15 17:50 | 35.69076 | -5.89472 | 12660 ft | 263 kts | 65° |
| 2026-04-15 17:51 | 35.69785 | -5.87386 | 13405 ft | 266 kts | 65° |
| 2026-04-15 17:51 | 35.70499 | -5.85275 | 14136 ft | 268 kts | 65° |
| 2026-04-15 17:51 | 35.71208 | -5.83171 | 14778 ft | 272 kts | 65° |
| 2026-04-15 17:51 | 35.71938 | -5.81000 | 15425 ft | 276 kts | 65° |
| 2026-04-15 17:52 | 35.72686 | -5.78782 | 15876 ft | 288 kts | 65° |
| 2026-04-15 17:52 | 35.73482 | -5.76430 | 16147 ft | 308 kts | 66° |
| 2026-04-15 17:52 | 35.74327 | -5.73927 | 16429 ft | 326 kts | 66° |
| 2026-04-15 17:52 | 35.75215 | -5.71293 | 16876 ft | 338 kts | 66° |
| 2026-04-15 17:53 | 35.76093 | -5.68570 | 17408 ft | 346 kts | 72° |
| 2026-04-15 17:53 | 35.76655 | -5.65662 | 18031 ft | 352 kts | 73° |
| 2026-04-15 17:53 | 35.77592 | -5.62896 | 18125 ft | 349 kts | 58° |
| 2026-04-15 17:53 | 35.78884 | -5.60370 | 18155 ft | 348 kts | 55° |
| 2026-04-15 17:54 | 35.80224 | -5.57893 | 18142 ft | 348 kts | 55° |
| 2026-04-15 17:54 | 35.81567 | -5.55409 | 18149 ft | 348 kts | 55° |
| 2026-04-15 17:54 | 35.82894 | -5.52914 | 18149 ft | 348 kts | 56° |
| 2026-04-15 17:54 | 35.84208 | -5.50404 | 18153 ft | 348 kts | 56° |
| 2026-04-15 17:55 | 35.85506 | -5.47891 | 18147 ft | 348 kts | 56° |
| 2026-04-15 17:55 | 35.86784 | -5.45396 | 18157 ft | 348 kts | 57° |
| 2026-04-15 17:55 | 35.88072 | -5.42868 | 18162 ft | 349 kts | 57° |
| 2026-04-15 17:55 | 35.89363 | -5.40326 | 18178 ft | 349 kts | 57° |
| 2026-04-15 17:56 | 35.90648 | -5.37788 | 18168 ft | 349 kts | 57° |
| 2026-04-15 17:56 | 35.91935 | -5.35243 | 18170 ft | 349 kts | 57° |
| 2026-04-15 17:56 | 35.93221 | -5.32699 | 18163 ft | 349 kts | 57° |
| 2026-04-15 17:56 | 35.94502 | -5.30161 | 18169 ft | 348 kts | 57° |
| 2026-04-15 17:57 | 35.95786 | -5.27616 | 18174 ft | 348 kts | 57° |
| 2026-04-15 17:57 | 35.97064 | -5.25082 | 18176 ft | 348 kts | 57° |
| 2026-04-15 17:57 | 35.97911 | -5.23400 | 18176 ft | 348 kts | 57° |
| 2026-04-15 17:57 | 35.99603 | -5.20039 | 18173 ft | 348 kts | 57° |
| 2026-04-15 17:58 | 36.00879 | -5.17503 | 18176 ft | 348 kts | 57° |
| 2026-04-15 17:58 | 36.02158 | -5.14958 | 18176 ft | 348 kts | 57° |
| 2026-04-15 17:58 | 36.03003 | -5.13277 | 18177 ft | 348 kts | 57° |
| 2026-04-15 17:58 | 36.04280 | -5.10733 | 18177 ft | 348 kts | 57° |
| 2026-04-15 17:59 | 36.05553 | -5.08195 | 18175 ft | 348 kts | 57° |
| 2026-04-15 17:59 | 36.06828 | -5.05651 | 18171 ft | 348 kts | 57° |
| 2026-04-15 17:59 | 36.08101 | -5.03109 | 18168 ft | 348 kts | 57° |
| 2026-04-15 17:59 | 36.09374 | -5.00565 | 18170 ft | 348 kts | 57° |
| 2026-04-15 18:00 | 36.10649 | -4.98017 | 18168 ft | 348 kts | 57° |
| 2026-04-15 18:00 | 36.11923 | -4.95469 | 18168 ft | 348 kts | 57° |
| 2026-04-15 18:00 | 36.13195 | -4.92921 | 18170 ft | 348 kts | 57° |
| 2026-04-15 18:00 | 36.14569 | -4.90461 | 18162 ft | 347 kts | 48° |
| 2026-04-15 18:01 | 36.16263 | -4.88358 | 18173 ft | 345 kts | 38° |
| 2026-04-15 18:01 | 36.18227 | -4.86650 | 18178 ft | 343 kts | 31° |
| 2026-04-15 18:01 | 36.20249 | -4.85072 | 18166 ft | 344 kts | 31° |
| 2026-04-15 18:01 | 36.22257 | -4.83537 | 18164 ft | 344 kts | 30° |
| 2026-04-15 18:02 | 36.24289 | -4.81983 | 18168 ft | 344 kts | 30° |
| 2026-04-15 18:02 | 36.26319 | -4.80423 | 18166 ft | 344 kts | 31° |
| 2026-04-15 18:02 | 36.28350 | -4.78851 | 18169 ft | 344 kts | 31° |
| 2026-04-15 18:02 | 36.30381 | -4.77272 | 18169 ft | 344 kts | 31° |
| 2026-04-15 18:03 | 36.32402 | -4.75695 | 18172 ft | 344 kts | 31° |
| 2026-04-15 18:03 | 36.34427 | -4.74110 | 18171 ft | 344 kts | 31° |
| 2026-04-15 18:03 | 36.36451 | -4.72524 | 18173 ft | 344 kts | 31° |
| 2026-04-15 18:03 | 36.38446 | -4.70959 | 18169 ft | 343 kts | 31° |
| 2026-04-15 18:04 | 36.40464 | -4.69374 | 18173 ft | 343 kts | 31° |
| 2026-04-15 18:04 | 36.42482 | -4.67788 | 18175 ft | 343 kts | 31° |
| 2026-04-15 18:04 | 36.44504 | -4.66198 | 18176 ft | 343 kts | 31° |
| 2026-04-15 18:04 | 36.46521 | -4.64611 | 18182 ft | 343 kts | 31° |
| 2026-04-15 18:05 | 36.48545 | -4.63017 | 18180 ft | 343 kts | 31° |
| 2026-04-15 18:05 | 36.50562 | -4.61428 | 18180 ft | 343 kts | 31° |
| 2026-04-15 18:05 | 36.52561 | -4.59852 | 18178 ft | 343 kts | 31° |
| 2026-04-15 18:05 | 36.54574 | -4.58263 | 18181 ft | 343 kts | 31° |
| 2026-04-15 18:06 | 36.56591 | -4.56671 | 18182 ft | 343 kts | 31° |
| 2026-04-15 18:06 | 36.58609 | -4.55077 | 18185 ft | 343 kts | 31° |
| 2026-04-15 18:06 | 36.60626 | -4.53483 | 18183 ft | 343 kts | 31° |
| 2026-04-15 18:06 | 36.62644 | -4.51887 | 18184 ft | 343 kts | 31° |
| 2026-04-15 18:07 | 36.64664 | -4.50288 | 18184 ft | 343 kts | 31° |
| 2026-04-15 18:07 | 36.66681 | -4.48690 | 18187 ft | 343 kts | 31° |
| 2026-04-15 18:07 | 36.68697 | -4.47092 | 18185 ft | 343 kts | 31° |
| 2026-04-15 18:07 | 36.70714 | -4.45493 | 18189 ft | 343 kts | 31° |
| 2026-04-15 18:08 | 36.72733 | -4.43891 | 18184 ft | 343 kts | 31° |
| 2026-04-15 18:08 | 36.74746 | -4.42292 | 18187 ft | 343 kts | 31° |
| 2026-04-15 18:08 | 36.76763 | -4.40691 | 18188 ft | 343 kts | 31° |
| 2026-04-15 18:08 | 36.78775 | -4.39091 | 18184 ft | 343 kts | 31° |
| 2026-04-15 18:09 | 36.80768 | -4.37508 | 18185 ft | 343 kts | 31° |
| 2026-04-15 18:09 | 36.82873 | -4.36115 | 18185 ft | 342 kts | 23° |
| 2026-04-15 18:09 | 36.85049 | -4.34912 | 18191 ft | 342 kts | 22° |
| 2026-04-15 18:09 | 36.87230 | -4.33740 | 18180 ft | 342 kts | 22° |
| 2026-04-15 18:10 | 36.89418 | -4.32568 | 18185 ft | 342 kts | 22° |
| 2026-04-15 18:10 | 36.91603 | -4.31393 | 18190 ft | 342 kts | 22° |
| 2026-04-15 18:10 | 36.93791 | -4.30209 | 18182 ft | 342 kts | 22° |
| 2026-04-15 18:10 | 36.95975 | -4.29022 | 18181 ft | 342 kts | 22° |
| 2026-04-15 18:11 | 36.98152 | -4.27835 | 18192 ft | 342 kts | 22° |
| 2026-04-15 18:11 | 37.00343 | -4.26637 | 18189 ft | 342 kts | 22° |
| 2026-04-15 18:11 | 37.02526 | -4.25441 | 18191 ft | 342 kts | 22° |
| 2026-04-15 18:11 | 37.04706 | -4.24245 | 18189 ft | 342 kts | 22° |
| 2026-04-15 18:12 | 37.06887 | -4.23047 | 18195 ft | 342 kts | 22° |
| 2026-04-15 18:12 | 37.09072 | -4.21847 | 18189 ft | 343 kts | 22° |
| 2026-04-15 18:12 | 37.11257 | -4.20644 | 18192 ft | 343 kts | 22° |
| 2026-04-15 18:12 | 37.13416 | -4.19456 | 18184 ft | 343 kts | 22° |
| 2026-04-15 18:13 | 37.15604 | -4.18251 | 18188 ft | 343 kts | 22° |
| 2026-04-15 18:13 | 37.17791 | -4.17045 | 18185 ft | 343 kts | 22° |
| 2026-04-15 18:13 | 37.19977 | -4.15840 | 18185 ft | 343 kts | 22° |
| 2026-04-15 18:14 | 37.24343 | -4.13429 | 18186 ft | 342 kts | 22° |
| 2026-04-15 18:14 | 37.26521 | -4.12225 | 18184 ft | 342 kts | 22° |
| 2026-04-15 18:14 | 37.28702 | -4.11019 | 18185 ft | 341 kts | 22° |
| 2026-04-15 18:14 | 37.30873 | -4.09818 | 18193 ft | 341 kts | 22° |
| 2026-04-15 18:15 | 37.33041 | -4.08618 | 18180 ft | 341 kts | 22° |
| 2026-04-15 18:15 | 37.35211 | -4.07416 | 18184 ft | 341 kts | 22° |
| 2026-04-15 18:15 | 37.37378 | -4.06215 | 18193 ft | 341 kts | 22° |
| 2026-04-15 18:15 | 37.39555 | -4.05007 | 18186 ft | 341 kts | 22° |
| 2026-04-15 18:16 | 37.41728 | -4.03801 | 18189 ft | 341 kts | 22° |
| 2026-04-15 18:16 | 37.43903 | -4.02593 | 18191 ft | 342 kts | 22° |
| 2026-04-15 18:16 | 37.46048 | -4.01401 | 18183 ft | 342 kts | 22° |
| 2026-04-15 18:16 | 37.48224 | -4.00191 | 18187 ft | 341 kts | 22° |
| 2026-04-15 18:17 | 37.50396 | -3.98982 | 18190 ft | 341 kts | 22° |
| 2026-04-15 18:17 | 37.52565 | -3.97774 | 18185 ft | 340 kts | 22° |
| 2026-04-15 18:17 | 37.54726 | -3.96570 | 18195 ft | 340 kts | 22° |
| 2026-04-15 18:17 | 37.56161 | -3.95770 | 18192 ft | 340 kts | 22° |
| 2026-04-15 18:18 | 37.59053 | -3.94157 | 18181 ft | 339 kts | 22° |
| 2026-04-15 18:18 | 37.61213 | -3.92951 | 18193 ft | 339 kts | 22° |
| 2026-04-15 18:18 | 37.63368 | -3.91748 | 18184 ft | 339 kts | 22° |
| 2026-04-15 18:18 | 37.65523 | -3.90543 | 18186 ft | 338 kts | 22° |
| 2026-04-15 18:19 | 37.67644 | -3.89357 | 18184 ft | 338 kts | 22° |
| 2026-04-15 18:19 | 37.69795 | -3.88152 | 18195 ft | 338 kts | 22° |
| 2026-04-15 18:19 | 37.71946 | -3.86948 | 18182 ft | 338 kts | 22° |
| 2026-04-15 18:19 | 37.74102 | -3.85740 | 18190 ft | 338 kts | 22° |
| 2026-04-15 18:20 | 37.76257 | -3.84531 | 18183 ft | 339 kts | 22° |
| 2026-04-15 18:20 | 37.78414 | -3.83321 | 18175 ft | 339 kts | 22° |
| 2026-04-15 18:20 | 37.80567 | -3.82112 | 18179 ft | 339 kts | 22° |
| 2026-04-15 18:20 | 37.82723 | -3.80901 | 18176 ft | 338 kts | 22° |
| 2026-04-15 18:21 | 37.84873 | -3.79693 | 18187 ft | 338 kts | 22° |
| 2026-04-15 18:21 | 37.87020 | -3.78485 | 18173 ft | 338 kts | 22° |
| 2026-04-15 18:21 | 37.89166 | -3.77277 | 18178 ft | 337 kts | 22° |
| 2026-04-15 18:21 | 37.91282 | -3.76085 | 18182 ft | 337 kts | 22° |
| 2026-04-15 18:22 | 37.93427 | -3.74875 | 18172 ft | 337 kts | 22° |
| 2026-04-15 18:22 | 37.95570 | -3.73667 | 18180 ft | 337 kts | 22° |
| 2026-04-15 18:22 | 37.97718 | -3.72455 | 18175 ft | 337 kts | 22° |
| 2026-04-15 18:22 | 37.99858 | -3.71246 | 18176 ft | 337 kts | 22° |
| 2026-04-15 18:23 | 38.02000 | -3.70036 | 18176 ft | 337 kts | 22° |
| 2026-04-15 18:23 | 38.04144 | -3.68823 | 18186 ft | 337 kts | 22° |
| 2026-04-15 18:23 | 38.06285 | -3.67611 | 18176 ft | 337 kts | 22° |
| 2026-04-15 18:23 | 38.08428 | -3.66398 | 18175 ft | 337 kts | 22° |
| 2026-04-15 18:24 | 38.10567 | -3.65186 | 18178 ft | 337 kts | 22° |
| 2026-04-15 18:24 | 38.12707 | -3.63973 | 18176 ft | 336 kts | 22° |
| 2026-04-15 18:24 | 38.14871 | -3.62870 | 18168 ft | 335 kts | 15° |
| 2026-04-15 18:24 | 38.17116 | -3.62256 | 18167 ft | 333 kts | 5° |
| 2026-04-15 18:25 | 38.19433 | -3.61996 | 18186 ft | 332 kts | 3° |
| 2026-04-15 18:25 | 38.21738 | -3.61789 | 18170 ft | 333 kts | 2° |
| 2026-04-15 18:25 | 38.24052 | -3.61590 | 18183 ft | 333 kts | 2° |
| 2026-04-15 18:25 | 38.26362 | -3.61387 | 18180 ft | 333 kts | 2° |
| 2026-04-15 18:26 | 38.28674 | -3.61178 | 18184 ft | 333 kts | 2° |
| 2026-04-15 18:26 | 38.30991 | -3.60963 | 18182 ft | 334 kts | 2° |
| 2026-04-15 18:26 | 38.33306 | -3.60744 | 18183 ft | 334 kts | 2° |
| 2026-04-15 18:26 | 38.35634 | -3.60521 | 18187 ft | 335 kts | 3° |
| 2026-04-15 18:27 | 38.37956 | -3.60297 | 18183 ft | 335 kts | 2° |
| 2026-04-15 18:27 | 38.40286 | -3.60072 | 18194 ft | 335 kts | 3° |
| 2026-04-15 18:27 | 38.42614 | -3.59845 | 18176 ft | 336 kts | 2° |
| 2026-04-15 18:27 | 38.44944 | -3.59618 | 18181 ft | 336 kts | 2° |
| 2026-04-15 18:28 | 38.47243 | -3.59394 | 18182 ft | 335 kts | 2° |
| 2026-04-15 18:28 | 38.49571 | -3.59166 | 18183 ft | 335 kts | 2° |
| 2026-04-15 18:28 | 38.51893 | -3.58939 | 18188 ft | 335 kts | 2° |
| 2026-04-15 18:28 | 38.54213 | -3.58712 | 18185 ft | 334 kts | 2° |
| 2026-04-15 18:29 | 38.56535 | -3.58484 | 18186 ft | 334 kts | 2° |
| 2026-04-15 18:29 | 38.58853 | -3.58257 | 18189 ft | 334 kts | 2° |
| 2026-04-15 18:29 | 38.61168 | -3.58030 | 18179 ft | 334 kts | 2° |
| 2026-04-15 18:29 | 38.63478 | -3.57804 | 18190 ft | 333 kts | 2° |
| 2026-04-15 18:30 | 38.65794 | -3.57576 | 18193 ft | 333 kts | 2° |
| 2026-04-15 18:30 | 38.68109 | -3.57349 | 18189 ft | 333 kts | 2° |
| 2026-04-15 18:30 | 38.70425 | -3.57121 | 18187 ft | 333 kts | 2° |
| 2026-04-15 18:30 | 38.72742 | -3.56893 | 18190 ft | 333 kts | 2° |
| 2026-04-15 18:31 | 38.75026 | -3.56669 | 18190 ft | 333 kts | 2° |
| 2026-04-15 18:31 | 38.77368 | -3.56438 | 18193 ft | 333 kts | 2° |
| 2026-04-15 18:31 | 38.79652 | -3.56213 | 18187 ft | 333 kts | 2° |
| 2026-04-15 18:31 | 38.81965 | -3.55985 | 18184 ft | 333 kts | 2° |
| 2026-04-15 18:32 | 38.84281 | -3.55756 | 18182 ft | 333 kts | 2° |
| 2026-04-15 18:32 | 38.86595 | -3.55527 | 18190 ft | 333 kts | 2° |
| 2026-04-15 18:32 | 38.88910 | -3.55299 | 18191 ft | 333 kts | 2° |
| 2026-04-15 18:32 | 38.91223 | -3.55070 | 18177 ft | 334 kts | 2° |
| 2026-04-15 18:33 | 38.93538 | -3.54841 | 18183 ft | 333 kts | 2° |
| 2026-04-15 18:33 | 38.95854 | -3.54611 | 18181 ft | 333 kts | 2° |
| 2026-04-15 18:33 | 38.98169 | -3.54382 | 18182 ft | 333 kts | 2° |
| 2026-04-15 18:33 | 39.00451 | -3.54156 | 18183 ft | 333 kts | 2° |
| 2026-04-15 18:34 | 39.02768 | -3.53927 | 18181 ft | 332 kts | 2° |
| 2026-04-15 18:34 | 39.05074 | -3.53701 | 18183 ft | 333 kts | 2° |
| 2026-04-15 18:34 | 39.07381 | -3.53474 | 18184 ft | 333 kts | 2° |
| 2026-04-15 18:34 | 39.09691 | -3.53248 | 18181 ft | 332 kts | 2° |
| 2026-04-15 18:35 | 39.11999 | -3.53020 | 18178 ft | 332 kts | 2° |
| 2026-04-15 18:35 | 39.14298 | -3.52794 | 18183 ft | 332 kts | 3° |
| 2026-04-15 18:35 | 39.16591 | -3.52481 | 18109 ft | 333 kts | 12° |
| 2026-04-15 18:35 | 39.18647 | -3.51124 | 17815 ft | 336 kts | 40° |
| 2026-04-15 18:36 | 39.19967 | -3.48676 | 17555 ft | 337 kts | 68° |
| 2026-04-15 18:36 | 39.20252 | -3.45727 | 17276 ft | 333 kts | 96° |
| 2026-04-15 18:36 | 39.19431 | -3.42973 | 17013 ft | 329 kts | 126° |
| 2026-04-15 18:36 | 39.17721 | -3.41085 | 16751 ft | 325 kts | 156° |
| 2026-04-15 18:37 | 39.15627 | -3.40126 | 16554 ft | 324 kts | 159° |
| 2026-04-15 18:37 | 39.13568 | -3.38855 | 16306 ft | 330 kts | 158° |
| 2026-04-15 18:37 | 39.11321 | -3.38374 | 15977 ft | 329 kts | 188° |
| 2026-04-15 18:37 | 39.09200 | -3.39296 | 15760 ft | 320 kts | 214° |
| 2026-04-15 18:38 | 39.07572 | -3.41182 | 15527 ft | 314 kts | 237° |
| 2026-04-15 18:38 | 39.06654 | -3.43696 | 15298 ft | 310 kts | 260° |
| 2026-04-15 18:38 | 39.06562 | -3.46407 | 15215 ft | 303 kts | 282° |
| 2026-04-15 18:38 | 39.07232 | -3.48943 | 15189 ft | 299 kts | 301° |
| 2026-04-15 18:39 | 39.08490 | -3.51032 | 15178 ft | 295 kts | 319° |
| 2026-04-15 18:39 | 39.10080 | -3.52706 | 15187 ft | 296 kts | 323° |
| 2026-04-15 18:39 | 39.11727 | -3.54304 | 15177 ft | 296 kts | 324° |
| 2026-04-15 18:39 | 39.13380 | -3.55880 | 15173 ft | 295 kts | 324° |
| 2026-04-15 18:40 | 39.15028 | -3.57454 | 15176 ft | 295 kts | 324° |
| 2026-04-15 18:40 | 39.16670 | -3.59032 | 15171 ft | 294 kts | 324° |
| 2026-04-15 18:40 | 39.18309 | -3.60615 | 15175 ft | 294 kts | 324° |
| 2026-04-15 18:40 | 39.19943 | -3.62200 | 15177 ft | 294 kts | 323° |
| 2026-04-15 18:41 | 39.21574 | -3.63787 | 15171 ft | 294 kts | 323° |
| 2026-04-15 18:41 | 39.23260 | -3.65432 | 15198 ft | 316 kts | 323° |
| 2026-04-15 18:41 | 39.25055 | -3.67185 | 15206 ft | 339 kts | 323° |
| 2026-04-15 18:41 | 39.27000 | -3.69088 | 15192 ft | 352 kts | 323° |
| 2026-04-15 18:42 | 39.28981 | -3.71028 | 15203 ft | 372 kts | 323° |
| 2026-04-15 18:42 | 39.31092 | -3.73099 | 15194 ft | 389 kts | 323° |
| 2026-04-15 18:42 | 39.33290 | -3.75258 | 15196 ft | 404 kts | 323° |
| 2026-04-15 18:42 | 39.35545 | -3.77475 | 15188 ft | 411 kts | 323° |
| 2026-04-15 18:43 | 39.37822 | -3.79717 | 15176 ft | 410 kts | 323° |
| 2026-04-15 18:43 | 39.40086 | -3.81947 | 15169 ft | 409 kts | 323° |
| 2026-04-15 18:43 | 39.42349 | -3.84177 | 15172 ft | 408 kts | 323° |
| 2026-04-15 18:43 | 39.44611 | -3.86408 | 15173 ft | 409 kts | 323° |
| 2026-04-15 18:44 | 39.46876 | -3.88644 | 15186 ft | 409 kts | 323° |
| 2026-04-15 18:44 | 39.48374 | -3.90125 | 15183 ft | 409 kts | 323° |
| 2026-04-15 18:44 | 39.50633 | -3.92351 | 15171 ft | 402 kts | 324° |
| 2026-04-15 18:44 | 39.52983 | -3.94055 | 14986 ft | 377 kts | 339° |
| 2026-04-15 18:45 | 39.55442 | -3.94854 | 14861 ft | 353 kts | 351° |
| 2026-04-15 18:45 | 39.57815 | -3.95055 | 14723 ft | 332 kts | 0° |
| 2026-04-15 18:45 | 39.60059 | -3.94943 | 14613 ft | 313 kts | 1° |
| 2026-04-15 18:45 | 39.62177 | -3.94823 | 14494 ft | 296 kts | 1° |
| 2026-04-15 18:46 | 39.64153 | -3.94398 | 14234 ft | 290 kts | 17° |
| 2026-04-15 18:46 | 39.66034 | -3.93415 | 14023 ft | 286 kts | 20° |
| 2026-04-15 18:46 | 39.67858 | -3.92398 | 13795 ft | 292 kts | 21° |
| 2026-04-15 18:46 | 39.69749 | -3.91344 | 13542 ft | 298 kts | 21° |
| 2026-04-15 18:47 | 39.71664 | -3.90288 | 13284 ft | 299 kts | 20° |
| 2026-04-15 18:47 | 39.73575 | -3.89222 | 13032 ft | 299 kts | 24° |
| 2026-04-15 18:47 | 39.75369 | -3.87868 | 12778 ft | 297 kts | 31° |
| 2026-04-15 18:47 | 39.77084 | -3.86384 | 12521 ft | 296 kts | 32° |
| 2026-04-15 18:48 | 39.78804 | -3.84862 | 12280 ft | 307 kts | 32° |
| 2026-04-15 18:48 | 39.80646 | -3.83246 | 12071 ft | 328 kts | 32° |
| 2026-04-15 18:48 | 39.82574 | -3.81570 | 11833 ft | 335 kts | 32° |
| 2026-04-15 18:48 | 39.84515 | -3.79895 | 11578 ft | 334 kts | 32° |
| 2026-04-15 18:49 | 39.86454 | -3.78232 | 11325 ft | 330 kts | 32° |
| 2026-04-15 18:49 | 39.88331 | -3.76626 | 11059 ft | 316 kts | 32° |
| 2026-04-15 18:49 | 39.90125 | -3.75093 | 10802 ft | 302 kts | 32° |
| 2026-04-15 18:49 | 39.91850 | -3.73618 | 10550 ft | 290 kts | 33° |
| 2026-04-15 18:50 | 39.93433 | -3.72045 | 10294 ft | 283 kts | 38° |
| 2026-04-15 18:50 | 39.94903 | -3.70415 | 10082 ft | 272 kts | 39° |
| 2026-04-15 18:50 | 39.96311 | -3.68828 | 9784 ft | 265 kts | 39° |
| 2026-04-15 18:50 | 39.97677 | -3.67295 | 9518 ft | 261 kts | 39° |
| 2026-04-15 18:51 | 39.99050 | -3.65764 | 9251 ft | 259 kts | 39° |
| 2026-04-15 18:51 | 40.00420 | -3.64246 | 8985 ft | 258 kts | 38° |
| 2026-04-15 18:51 | 40.01791 | -3.62734 | 8719 ft | 257 kts | 38° |
| 2026-04-15 18:51 | 40.03158 | -3.61230 | 8447 ft | 256 kts | 38° |
| 2026-04-15 18:52 | 40.04521 | -3.59729 | 8186 ft | 255 kts | 39° |
| 2026-04-15 18:52 | 40.05877 | -3.58240 | 7922 ft | 254 kts | 38° |
| 2026-04-15 18:52 | 40.07228 | -3.56754 | 7657 ft | 253 kts | 38° |
| 2026-04-15 18:52 | 40.08574 | -3.55276 | 7396 ft | 252 kts | 38° |
| 2026-04-15 18:53 | 40.09914 | -3.53803 | 7140 ft | 252 kts | 38° |
| 2026-04-15 18:53 | 40.11253 | -3.52331 | 6881 ft | 252 kts | 38° |
| 2026-04-15 18:53 | 40.12578 | -3.50874 | 6611 ft | 252 kts | 38° |
| 2026-04-15 18:53 | 40.13935 | -3.49381 | 6330 ft | 252 kts | 38° |
| 2026-04-15 18:54 | 40.15251 | -3.47932 | 6161 ft | 247 kts | 38° |
| 2026-04-15 18:54 | 40.16546 | -3.46505 | 6036 ft | 240 kts | 38° |
| 2026-04-15 18:54 | 40.17793 | -3.45086 | 5947 ft | 237 kts | 40° |
| 2026-04-15 18:54 | 40.19037 | -3.43620 | 5892 ft | 246 kts | 40° |
| 2026-04-15 18:55 | 40.20330 | -3.42091 | 5811 ft | 253 kts | 40° |
| 2026-04-15 18:55 | 40.21723 | -3.40675 | 5708 ft | 254 kts | 29° |
| 2026-04-15 18:55 | 40.23263 | -3.39544 | 5621 ft | 253 kts | 26° |
| 2026-04-15 18:55 | 40.24797 | -3.38498 | 5517 ft | 243 kts | 21° |
| 2026-04-15 18:56 | 40.26406 | -3.38082 | 5421 ft | 231 kts | 0° |
| 2026-04-15 18:56 | 40.27980 | -3.37986 | 5357 ft | 225 kts | 1° |
| 2026-04-15 18:56 | 40.29535 | -3.37879 | 5291 ft | 223 kts | 1° |
| 2026-04-15 18:56 | 40.31087 | -3.37792 | 5227 ft | 223 kts | 354° |
| 2026-04-15 18:57 | 40.32516 | -3.38488 | 5123 ft | 223 kts | 320° |
| 2026-04-15 18:57 | 40.33673 | -3.39726 | 5049 ft | 210 kts | 320° |
| 2026-04-15 18:57 | 40.34817 | -3.40845 | 4950 ft | 194 kts | 321° |
| 2026-04-15 18:57 | 40.35846 | -3.41871 | 4750 ft | 185 kts | 320° |
| 2026-04-15 18:58 | 40.36847 | -3.42887 | 4507 ft | 179 kts | 319° |
| 2026-04-15 18:58 | 40.37786 | -3.43845 | 4297 ft | 163 kts | 319° |
| 2026-04-15 18:58 | 40.38654 | -3.44732 | 4068 ft | 154 kts | 318° |
| 2026-04-15 18:58 | 40.39491 | -3.45588 | 3865 ft | 152 kts | 318° |
| 2026-04-15 18:59 | 40.40333 | -3.46452 | 3685 ft | 155 kts | 318° |
| 2026-04-15 18:59 | 40.41180 | -3.47314 | 3472 ft | 153 kts | 318° |
| 2026-04-15 18:59 | 40.42018 | -3.48170 | 3263 ft | 152 kts | 319° |
| 2026-04-15 18:59 | 40.42857 | -3.49028 | 3077 ft | 154 kts | 320° |
| 2026-04-15 19:00 | 40.43707 | -3.49895 | 2847 ft | 155 kts | 320° |
| 2026-04-15 19:00 | 40.44556 | -3.50762 | 2664 ft | 155 kts | 320° |
| 2026-04-15 19:00 | 40.45412 | -3.51637 | 2452 ft | 155 kts | 318° |
| 2026-04-15 19:00 | 40.46241 | -3.52504 | 2235 ft | 151 kts | 317° |
| 2026-04-15 19:01 | 40.47074 | -3.53342 | 2024 ft | 150 kts | 319° |
| 2026-04-15 19:01 | 40.47881 | -3.54175 | 1927 ft | 142 kts | 323° |
| 2026-04-15 19:01 | 40.48504 | -3.54788 | 1939 ft | 79 kts | 322° |